createdAt,value
2023-02-22T00:04:53.371Z,7.80
2023-02-22T00:07:23.686Z,7.80
2023-02-22T00:09:51.749Z,7.90
2023-02-22T00:12:20.585Z,7.90
2023-02-22T00:14:48.688Z,7.90
2023-02-22T00:17:16.734Z,8.00
2023-02-22T00:19:44.815Z,8.00
2023-02-22T00:22:14.276Z,7.90
2023-02-22T00:24:42.282Z,8.00
2023-02-22T00:27:11.008Z,8.00
2023-02-22T00:29:39.058Z,8.00
2023-02-22T00:32:07.231Z,8.00
2023-02-22T00:34:35.451Z,8.00
2023-02-22T00:37:05.535Z,8.00
2023-02-22T00:39:34.978Z,8.00
2023-02-22T00:42:03.985Z,8.00
2023-02-22T00:44:33.029Z,8.10
2023-02-22T00:47:01.093Z,8.10
2023-02-22T00:49:29.108Z,8.10
2023-02-22T00:51:57.299Z,8.10
2023-02-22T00:54:25.618Z,8.00
2023-02-22T00:56:55.316Z,8.00
2023-02-22T00:59:23.333Z,8.00
2023-02-22T01:01:51.537Z,8.10
2023-02-22T01:04:19.794Z,8.00
2023-02-22T01:06:48.306Z,8.10
2023-02-22T01:09:16.361Z,8.00
2023-02-22T01:11:45.354Z,8.10
2023-02-22T01:14:14.775Z,8.00
2023-02-22T01:16:42.885Z,8.00
2023-02-22T01:19:12.810Z,8.00
2023-02-22T01:21:41.732Z,8.00
2023-02-22T01:24:10.174Z,8.00
2023-02-22T01:26:39.092Z,8.00
2023-02-22T01:29:08.404Z,8.00
2023-02-22T01:31:38.024Z,7.90
2023-02-22T01:34:06.136Z,7.90
2023-02-22T01:36:34.149Z,7.90
2023-02-22T01:39:02.264Z,7.90
2023-02-22T01:41:30.368Z,7.90
2023-02-22T01:43:58.464Z,7.80
2023-02-22T01:46:27.822Z,7.80
2023-02-22T01:49:00.282Z,7.80
2023-02-22T01:51:31.828Z,7.80
2023-02-22T01:54:02.983Z,7.80
2023-02-22T01:56:33.623Z,7.70
2023-02-22T01:59:06.731Z,7.80
2023-02-22T02:01:36.113Z,7.80
2023-02-22T02:04:10.352Z,7.80
2023-02-22T02:06:39.676Z,7.80
2023-02-22T02:09:15.139Z,7.70
2023-02-22T02:11:43.942Z,7.70
2023-02-22T02:14:13.312Z,7.70
2023-02-22T02:16:43.782Z,7.70
2023-02-22T02:19:24.348Z,7.70
2023-02-22T02:22:20.621Z,7.60
2023-02-22T02:25:11.483Z,7.60
2023-02-22T02:28:02.633Z,7.60
2023-02-22T02:31:06.157Z,7.60
2023-02-22T02:33:38.248Z,7.60
2023-02-22T02:36:15.264Z,7.60
2023-02-22T02:38:47.285Z,7.60
2023-02-22T02:41:19.654Z,7.60
2023-02-22T02:43:54.226Z,7.60
2023-02-22T02:46:29.019Z,7.60
2023-02-22T02:49:01.760Z,7.60
2023-02-22T02:51:34.367Z,7.60
2023-02-22T02:54:04.337Z,7.50
2023-02-22T02:56:32.757Z,7.50
2023-02-22T02:59:00.852Z,7.50
2023-02-22T03:01:48.420Z,7.50
2023-02-22T03:04:36.058Z,7.50
2023-02-22T03:07:39.400Z,7.50
2023-02-22T03:10:21.594Z,7.50
2023-02-22T03:12:59.488Z,7.50
2023-02-22T03:15:36.324Z,7.50
2023-02-22T03:18:08.379Z,7.40
2023-02-22T03:20:46.383Z,7.40
2023-02-22T03:23:24.763Z,7.40
2023-02-22T03:25:56.961Z,7.30
2023-02-22T03:28:27.462Z,7.30
2023-02-22T03:31:00.314Z,7.30
2023-02-22T03:33:38.376Z,7.30
2023-02-22T03:36:15.502Z,7.30
2023-02-22T03:38:46.510Z,7.30
2023-02-22T03:41:17.138Z,7.30
2023-02-22T03:43:50.437Z,7.30
2023-02-22T03:46:19.304Z,7.30
2023-02-22T03:48:54.232Z,7.30
2023-02-22T03:51:24.853Z,7.30
2023-02-22T03:53:53.682Z,7.30
2023-02-22T03:56:25.978Z,7.30
2023-02-22T03:58:54.681Z,7.20
2023-02-22T04:01:23.650Z,7.20
2023-02-22T04:03:51.824Z,7.20
2023-02-22T04:06:19.915Z,7.20
2023-02-22T04:08:49.352Z,7.20
2023-02-22T04:11:17.427Z,7.10
2023-02-22T04:13:45.686Z,7.20
2023-02-22T04:16:13.789Z,7.10
2023-02-22T04:18:41.935Z,7.20
2023-02-22T04:21:10.179Z,7.10
2023-02-22T04:23:39.079Z,7.10
2023-02-22T04:26:08.556Z,7.10
2023-02-22T04:28:36.397Z,7.10
2023-02-22T04:31:04.531Z,7.10
2023-02-22T04:33:32.640Z,7.10
2023-02-22T04:36:00.660Z,7.00
2023-02-22T04:38:28.806Z,7.00
2023-02-22T04:40:57.001Z,7.00
2023-02-22T04:43:26.518Z,7.00
2023-02-22T04:45:54.589Z,7.00
2023-02-22T04:48:22.652Z,7.00
2023-02-22T04:50:51.199Z,7.00
2023-02-22T04:53:19.478Z,7.00
2023-02-22T04:55:47.528Z,7.00
2023-02-22T04:58:15.577Z,7.00
2023-02-22T05:00:45.009Z,7.00
2023-02-22T05:03:13.094Z,7.00
2023-02-22T05:05:41.183Z,7.00
2023-02-22T05:08:09.257Z,6.90
2023-02-22T05:10:37.442Z,7.00
2023-02-22T05:13:06.082Z,7.00
2023-02-22T05:15:34.324Z,6.90
2023-02-22T05:18:03.933Z,6.90
2023-02-22T05:20:34.830Z,6.90
2023-02-22T05:23:04.026Z,6.90
2023-02-22T05:25:33.191Z,6.90
2023-02-22T05:28:03.228Z,6.90
2023-02-22T05:30:33.188Z,6.90
2023-02-22T05:33:01.565Z,6.90
2023-02-22T05:35:31.652Z,6.90
2023-02-22T05:38:01.947Z,6.90
2023-02-22T05:40:31.092Z,6.90
2023-02-22T05:42:59.674Z,6.90
2023-02-22T05:45:29.131Z,6.90
2023-02-22T05:47:58.756Z,6.80
2023-02-22T05:50:27.328Z,6.90
2023-02-22T05:52:57.258Z,6.80
2023-02-22T05:55:25.814Z,6.80
2023-02-22T05:57:54.274Z,6.80
2023-02-22T06:00:24.766Z,6.80
2023-02-22T06:02:57.375Z,6.80
2023-02-22T06:05:25.830Z,6.80
2023-02-22T06:07:54.242Z,6.80
2023-02-22T06:10:24.116Z,6.80
2023-02-22T06:12:53.059Z,6.80
2023-02-22T06:15:22.910Z,6.80
2023-02-22T06:17:51.936Z,6.80
2023-02-22T06:20:22.591Z,6.90
2023-02-22T06:22:51.343Z,6.90
2023-02-22T06:25:22.061Z,6.90
2023-02-22T06:27:51.635Z,7.00
2023-02-22T06:30:20.884Z,7.00
2023-02-22T06:32:48.923Z,7.00
2023-02-22T06:35:18.044Z,7.00
2023-02-22T06:37:46.618Z,7.10
2023-02-22T06:40:15.850Z,7.10
2023-02-22T06:42:43.952Z,7.10
2023-02-22T06:45:13.398Z,7.10
2023-02-22T06:47:42.224Z,7.20
2023-02-22T06:50:20.517Z,7.20
2023-02-22T06:52:48.971Z,7.30
2023-02-22T06:55:21.724Z,7.30
2023-02-22T06:57:49.803Z,7.40
2023-02-22T07:00:21.298Z,7.40
2023-02-22T07:02:49.871Z,7.50
2023-02-22T07:05:19.240Z,7.50
2023-02-22T07:07:47.807Z,7.60
2023-02-22T07:10:21.490Z,7.60
2023-02-22T07:12:50.014Z,7.70
2023-02-22T07:15:21.479Z,7.80
2023-02-22T07:17:49.597Z,7.90
2023-02-22T07:20:18.323Z,7.90
2023-02-22T07:22:46.334Z,8.00
2023-02-22T07:25:14.438Z,8.10
2023-02-22T07:27:43.389Z,8.10
2023-02-22T07:30:18.242Z,8.20
2023-02-22T07:32:48.235Z,8.30
2023-02-22T07:35:18.546Z,8.30
2023-02-22T07:37:47.947Z,8.40
2023-02-22T07:40:17.401Z,8.50
2023-02-22T07:42:53.425Z,8.60
2023-02-22T07:45:22.882Z,8.70
2023-02-22T07:47:52.346Z,8.80
2023-02-22T07:50:21.552Z,8.90
2023-02-22T07:52:51.077Z,9.00
2023-02-22T07:55:21.434Z,9.10
2023-02-22T07:57:50.413Z,9.20
2023-02-22T08:00:24.286Z,9.30
2023-02-22T08:02:53.813Z,9.40
2023-02-22T08:05:23.160Z,9.50
2023-02-22T08:07:51.197Z,9.60
2023-02-22T08:10:22.322Z,9.60
2023-02-22T08:12:51.144Z,9.80
2023-02-22T08:15:22.141Z,9.90
2023-02-22T08:17:50.184Z,10.00
2023-02-22T08:20:19.740Z,10.10
2023-02-22T08:22:48.078Z,10.10
2023-02-22T08:25:17.639Z,10.30
2023-02-22T08:27:45.768Z,10.40
2023-02-22T08:30:17.518Z,10.50
2023-02-22T08:32:47.531Z,10.60
2023-02-22T08:35:16.646Z,10.70
2023-02-22T08:37:46.375Z,10.80
2023-02-22T08:40:17.184Z,11.00
2023-02-22T08:42:45.386Z,11.00
2023-02-22T08:45:14.322Z,11.20
2023-02-22T08:47:42.770Z,11.30
2023-02-22T08:50:16.835Z,11.40
2023-02-22T08:52:46.262Z,11.60
2023-02-22T08:55:14.981Z,12.00
2023-02-22T08:57:43.071Z,12.20
2023-02-22T09:00:12.488Z,12.30
2023-02-22T09:02:41.586Z,12.40
2023-02-22T09:05:09.916Z,12.50
2023-02-22T09:07:37.963Z,12.40
2023-02-22T09:10:08.174Z,12.30
2023-02-22T09:12:36.201Z,12.20
2023-02-22T09:15:04.519Z,12.20
2023-02-22T09:17:32.592Z,12.20
2023-02-22T09:20:00.669Z,12.40
2023-02-22T09:22:28.781Z,12.70
2023-02-22T09:24:58.479Z,13.10
2023-02-22T09:27:29.024Z,13.40
2023-02-22T09:29:57.248Z,13.60
2023-02-22T09:32:27.739Z,13.80
2023-02-22T09:34:56.405Z,14.10
2023-02-22T09:37:24.519Z,14.40
2023-02-22T09:39:52.668Z,14.70
2023-02-22T09:42:33.638Z,14.80
2023-02-22T09:45:12.763Z,15.10
2023-02-22T09:47:46.641Z,15.20
2023-02-22T09:50:22.402Z,15.10
2023-02-22T09:52:57.676Z,14.80
2023-02-22T09:55:34.427Z,14.60
2023-02-22T09:58:10.514Z,14.40
2023-02-22T10:00:42.187Z,14.20
2023-02-22T10:03:22.703Z,14.30
2023-02-22T10:05:56.872Z,14.30
2023-02-22T10:08:31.313Z,14.40
2023-02-22T10:11:11.402Z,14.50
2023-02-22T10:13:51.187Z,14.70
2023-02-22T10:16:24.950Z,15.00
2023-02-22T10:19:11.055Z,15.30
2023-02-22T10:22:15.278Z,15.50
2023-02-22T10:24:55.049Z,15.60
2023-02-22T10:27:32.887Z,15.60
2023-02-22T10:30:22.056Z,15.60
2023-02-22T10:32:57.288Z,15.70
2023-02-22T10:35:29.032Z,15.70
2023-02-22T10:38:00.904Z,15.90
2023-02-22T10:40:33.060Z,16.20
2023-02-22T10:43:06.083Z,16.50
2023-02-22T10:45:37.113Z,16.80
2023-02-22T10:48:11.494Z,17.20
2023-02-22T10:50:41.578Z,17.60
2023-02-22T10:53:10.818Z,17.80
2023-02-22T10:56:14.318Z,17.80
2023-02-22T10:58:48.892Z,17.50
2023-02-22T11:01:27.656Z,17.60
2023-02-22T11:04:01.620Z,17.50
2023-02-22T11:06:31.055Z,17.60
2023-02-22T11:09:06.540Z,17.50
2023-02-22T11:11:34.590Z,17.90
2023-02-22T11:14:06.622Z,18.20
2023-02-22T11:16:39.684Z,18.20
2023-02-22T11:19:17.828Z,18.60
2023-02-22T11:21:46.241Z,18.80
2023-02-22T11:26:48.618Z,19.00
2023-02-22T11:29:22.134Z,19.20
2023-02-22T11:31:52.143Z,19.30
2023-02-22T11:34:31.618Z,19.30
2023-02-22T11:37:17.770Z,19.40
2023-02-22T11:39:46.465Z,19.30
2023-02-22T11:42:23.501Z,19.40
2023-02-22T11:45:09.855Z,19.90
2023-02-22T11:47:53.567Z,20.30
2023-02-22T11:50:30.309Z,20.60
2023-02-22T11:53:25.298Z,20.90
2023-02-22T11:56:04.437Z,20.90
2023-02-22T11:58:42.304Z,21.10
2023-02-22T12:01:19.472Z,21.40
2023-02-22T12:04:09.400Z,21.60
2023-02-22T12:06:47.351Z,21.80
2023-02-22T12:09:24.130Z,22.10
2023-02-22T12:12:04.422Z,22.20
2023-02-22T12:14:41.960Z,22.20
2023-02-22T12:17:23.402Z,22.40
2023-02-22T12:19:58.797Z,21.90
2023-02-22T12:22:29.828Z,21.90
2023-02-22T12:25:09.523Z,21.70
2023-02-22T12:27:42.685Z,22.00
2023-02-22T12:30:19.119Z,22.30
2023-02-22T12:32:51.711Z,22.80
2023-02-22T12:35:24.820Z,23.20
2023-02-22T12:38:04.072Z,23.30
2023-02-22T12:40:35.545Z,23.40
2023-02-22T12:43:09.568Z,23.30
2023-02-22T12:45:41.173Z,23.50
2023-02-22T12:48:22.805Z,23.90
2023-02-22T12:50:56.629Z,23.90
2023-02-22T12:53:29.399Z,23.80
2023-02-22T12:56:03.923Z,24.00
2023-02-22T12:58:40.676Z,24.20
2023-02-22T13:01:17.833Z,24.50
2023-02-22T13:03:46.643Z,24.60
2023-02-22T13:06:37.290Z,24.70
2023-02-22T13:09:38.180Z,25.10
2023-02-22T13:12:14.009Z,25.10
2023-02-22T13:14:54.689Z,24.90
2023-02-22T13:17:30.141Z,25.10
2023-02-22T13:20:01.993Z,25.60
2023-02-22T13:22:39.770Z,25.60
2023-02-22T13:25:13.619Z,26.00
2023-02-22T13:27:47.993Z,26.10
2023-02-22T13:30:22.292Z,26.00
2023-02-22T13:33:06.766Z,25.70
2023-02-22T13:35:51.755Z,26.20
2023-02-22T13:38:57.721Z,26.10
2023-02-22T13:41:52.905Z,26.20
2023-02-22T13:44:53.593Z,26.40
2023-02-22T13:47:49.720Z,26.30
2023-02-22T13:50:34.730Z,26.30
2023-02-22T13:53:07.887Z,26.20
2023-02-22T13:55:40.491Z,26.50
2023-02-22T13:58:10.694Z,26.80
2023-02-22T14:00:48.772Z,27.10
2023-02-22T14:03:40.438Z,27.30
2023-02-22T14:06:32.968Z,27.10
2023-02-22T14:09:02.048Z,27.20
2023-02-22T14:11:56.659Z,27.20
2023-02-22T14:14:25.901Z,27.30
2023-02-22T14:17:21.656Z,27.30
2023-02-22T14:20:05.724Z,26.80
2023-02-22T14:22:34.003Z,26.10
2023-02-22T14:25:02.343Z,25.50
2023-02-22T14:27:42.600Z,24.90
2023-02-22T14:30:26.663Z,23.80
2023-02-22T14:32:54.954Z,22.50
2023-02-22T14:35:29.906Z,21.50
2023-02-22T14:38:02.802Z,20.60
2023-02-22T14:40:33.032Z,19.90
2023-02-22T14:43:07.181Z,19.50
2023-02-22T14:45:37.780Z,18.90
2023-02-22T14:48:13.881Z,18.50
2023-02-22T14:50:48.739Z,18.10
2023-02-22T14:53:25.351Z,17.80
2023-02-22T14:55:58.831Z,17.40
2023-02-22T14:58:35.354Z,17.20
2023-02-22T15:01:24.329Z,16.90
2023-02-22T15:04:07.247Z,16.70
2023-02-22T15:06:36.273Z,16.70
2023-02-22T15:09:09.976Z,17.00
2023-02-22T15:11:38.269Z,17.30
2023-02-22T15:14:25.806Z,17.60
2023-02-22T15:16:57.642Z,17.80
2023-02-22T15:19:29.701Z,17.70
2023-02-22T15:22:00.180Z,17.40
2023-02-22T15:24:30.624Z,17.20
2023-02-22T15:27:06.162Z,17.00
2023-02-22T15:29:38.366Z,16.70
2023-02-22T15:32:21.035Z,16.20
2023-02-22T15:34:49.182Z,15.70
2023-02-22T15:37:25.376Z,15.20
2023-02-22T15:39:59.367Z,14.90
2023-02-22T15:42:30.367Z,14.60
2023-02-22T15:45:00.027Z,14.30
2023-02-22T15:47:31.933Z,14.00
2023-02-22T15:50:21.202Z,13.70
2023-02-22T15:52:53.308Z,13.40
2023-02-22T15:55:25.743Z,13.20
2023-02-22T15:57:54.187Z,13.00
2023-02-22T16:00:33.285Z,12.80
2023-02-22T16:03:01.858Z,12.70
2023-02-22T16:05:39.120Z,12.40
2023-02-22T16:08:17.898Z,12.30
2023-02-22T16:10:53.232Z,12.10
2023-02-22T16:13:31.561Z,12.00
2023-02-22T16:16:03.029Z,11.70
2023-02-22T16:18:34.385Z,11.60
2023-02-22T16:21:05.572Z,11.50
2023-02-22T16:23:44.783Z,11.40
2023-02-22T16:26:29.738Z,11.30
2023-02-22T16:28:59.908Z,11.10
2023-02-22T16:31:33.712Z,11.00
2023-02-22T16:34:03.351Z,10.80
2023-02-22T16:36:39.094Z,10.70
2023-02-22T16:39:08.351Z,10.60
2023-02-22T16:41:36.487Z,10.50
2023-02-22T16:44:07.655Z,10.40
2023-02-22T16:46:37.902Z,10.30
2023-02-22T16:49:06.688Z,10.20
2023-02-22T16:51:44.852Z,10.10
2023-02-22T16:54:14.849Z,10.00
2023-02-22T16:56:43.038Z,9.90
2023-02-22T16:59:15.031Z,9.80
2023-02-22T17:01:44.923Z,9.80
2023-02-22T17:04:18.426Z,9.70
2023-02-22T17:06:46.629Z,9.60
2023-02-22T17:09:16.269Z,9.60
2023-02-22T17:11:44.857Z,9.60
2023-02-22T17:14:17.923Z,9.50
2023-02-22T17:16:47.580Z,9.40
2023-02-22T17:19:18.414Z,9.40
2023-02-22T17:21:46.869Z,9.30
2023-02-22T17:24:16.248Z,9.20
2023-02-22T17:26:44.295Z,9.10
2023-02-22T17:29:13.640Z,9.10
2023-02-22T17:31:42.161Z,9.00
2023-02-22T17:34:11.677Z,8.90
2023-02-22T17:36:39.545Z,8.90
2023-02-22T17:39:10.475Z,8.80
2023-02-22T17:41:40.722Z,8.70
2023-02-22T17:44:09.117Z,8.70
2023-02-22T17:46:37.578Z,8.60
2023-02-22T17:49:05.647Z,8.60
2023-02-22T17:51:35.301Z,8.50
2023-02-22T17:54:03.421Z,8.40
2023-02-22T17:56:31.580Z,8.40
2023-02-22T17:58:59.807Z,8.30
2023-02-22T18:01:29.984Z,8.20
2023-02-22T18:04:00.215Z,8.10
2023-02-22T18:06:30.134Z,8.10
2023-02-22T18:09:00.858Z,8.00
2023-02-22T18:11:32.572Z,8.00
2023-02-22T18:14:00.746Z,8.00
2023-02-22T18:16:29.086Z,7.90
2023-02-22T18:18:57.637Z,7.80
2023-02-22T18:21:26.768Z,7.80
2023-02-22T18:23:55.238Z,7.70
2023-02-22T18:26:25.767Z,7.70
2023-02-22T18:28:54.728Z,7.60
2023-02-22T18:31:24.289Z,7.60
2023-02-22T18:33:52.799Z,7.50
2023-02-22T18:36:22.889Z,7.40
2023-02-22T18:38:53.115Z,7.40
2023-02-22T18:41:25.147Z,7.40
2023-02-22T18:43:58.892Z,7.30
2023-02-22T18:46:29.895Z,7.30
2023-02-22T18:48:58.991Z,7.20
2023-02-22T18:51:27.572Z,7.20
2023-02-22T18:54:00.358Z,7.10
2023-02-22T18:56:30.741Z,7.10
2023-02-22T18:59:01.604Z,7.10
2023-02-22T19:01:30.672Z,7.00
2023-02-22T19:03:59.302Z,7.00
2023-02-22T19:06:27.450Z,7.00
2023-02-22T19:08:55.498Z,6.90
2023-02-22T19:11:25.324Z,6.90
2023-02-22T19:13:54.935Z,6.80
2023-02-22T19:16:25.913Z,6.80
2023-02-22T19:18:57.512Z,6.70
2023-02-22T19:21:27.441Z,6.70
2023-02-22T19:23:55.769Z,6.60
2023-02-22T19:26:25.839Z,6.50
2023-02-22T19:28:55.528Z,6.40
2023-02-22T19:31:29.448Z,6.40
2023-02-22T19:34:01.445Z,6.40
2023-02-22T19:36:29.693Z,6.30
2023-02-22T19:39:01.571Z,6.30
2023-02-22T19:41:30.073Z,6.30
2023-02-22T19:43:58.655Z,6.30
2023-02-22T19:46:28.230Z,6.30
2023-02-22T19:48:56.403Z,6.30
2023-02-22T19:51:29.427Z,6.20
2023-02-22T19:53:59.104Z,6.20
2023-02-22T19:56:27.550Z,6.20
2023-02-22T19:58:57.227Z,6.20
2023-02-22T20:01:29.056Z,6.10
2023-02-22T20:03:59.877Z,6.10
2023-02-22T20:06:30.421Z,6.10
2023-02-22T20:08:59.223Z,6.00
2023-02-22T20:11:28.411Z,6.00
2023-02-22T20:13:56.845Z,6.00
2023-02-22T20:16:25.467Z,5.90
2023-02-22T20:18:56.548Z,5.80
2023-02-22T20:21:29.497Z,5.80
2023-02-22T20:23:59.216Z,5.80
2023-02-22T20:26:29.427Z,5.70
2023-02-22T20:28:57.731Z,5.70
2023-02-22T20:31:26.276Z,5.70
2023-02-22T20:33:57.513Z,5.60
2023-02-22T20:36:26.786Z,5.60
2023-02-22T20:38:56.044Z,5.50
2023-02-22T20:41:26.716Z,5.50
2023-02-22T20:43:56.307Z,5.50
2023-02-22T20:46:25.444Z,5.60
2023-02-22T20:48:57.485Z,5.50
2023-02-22T20:51:26.557Z,5.60
2023-02-22T20:53:55.036Z,5.60
2023-02-22T20:56:24.972Z,5.60
2023-02-22T20:58:53.366Z,5.60
2023-02-22T21:01:22.467Z,5.60
2023-02-22T21:03:51.510Z,5.50
2023-02-22T21:06:22.456Z,5.50
2023-02-22T21:08:54.582Z,5.50
2023-02-22T21:11:24.045Z,5.40
2023-02-22T21:13:52.182Z,5.40
2023-02-22T21:16:22.106Z,5.40
2023-02-22T21:18:52.060Z,5.40
2023-02-22T21:21:22.280Z,5.30
2023-02-22T21:23:52.323Z,5.30
2023-02-22T21:26:23.956Z,5.30
2023-02-22T21:28:52.412Z,5.30
2023-02-22T21:31:22.254Z,5.20
2023-02-22T21:33:52.583Z,5.20
2023-02-22T21:36:25.320Z,5.20
2023-02-22T21:38:55.763Z,5.20
2023-02-22T21:41:27.645Z,5.20
2023-02-22T21:43:56.924Z,5.20
2023-02-22T21:46:29.922Z,5.20
2023-02-22T21:48:59.438Z,5.20
2023-02-22T21:51:31.869Z,5.10
2023-02-22T21:54:02.044Z,5.10
2023-02-22T21:56:32.308Z,5.10
2023-02-22T21:59:03.670Z,5.10
2023-02-22T22:01:33.490Z,5.10
2023-02-22T22:04:02.601Z,5.10
2023-02-22T22:06:34.381Z,5.00
2023-02-22T22:09:04.974Z,5.00
2023-02-22T22:11:33.026Z,5.00
2023-02-22T22:14:01.097Z,5.00
2023-02-22T22:16:30.327Z,5.00
2023-02-22T22:18:58.754Z,5.00
2023-02-22T22:21:27.219Z,5.00
2023-02-22T22:23:57.412Z,5.00
2023-02-22T22:26:27.473Z,5.00
2023-02-22T22:28:57.646Z,5.00
2023-02-22T22:31:26.917Z,4.90
2023-02-22T22:33:56.499Z,4.90
2023-02-22T22:36:25.955Z,4.90
2023-02-22T22:38:57.234Z,4.80
2023-02-22T22:41:28.838Z,4.80
2023-02-22T22:43:57.165Z,4.70
2023-02-22T22:46:25.477Z,4.70
2023-02-22T22:48:53.517Z,4.70
2023-02-22T22:51:22.379Z,4.60
2023-02-22T22:53:51.598Z,4.60
2023-02-22T22:56:25.915Z,4.60
2023-02-22T22:58:57.281Z,4.50
2023-02-22T23:01:31.733Z,4.50
2023-02-22T23:04:02.153Z,4.50
2023-02-22T23:06:32.932Z,4.50
2023-02-22T23:09:10.135Z,4.50
2023-02-22T23:11:44.215Z,4.50
2023-02-22T23:14:15.875Z,4.40
2023-02-22T23:16:45.408Z,4.40
2023-02-22T23:19:15.482Z,4.50
2023-02-22T23:21:44.193Z,4.50
2023-02-22T23:24:15.446Z,4.40
2023-02-22T23:26:48.307Z,4.40
2023-02-22T23:29:18.991Z,4.40
2023-02-22T23:31:48.360Z,4.40
2023-02-22T23:34:17.251Z,4.40
2023-02-22T23:36:45.479Z,4.30
2023-02-22T23:39:15.500Z,4.30
2023-02-22T23:41:43.845Z,4.20
2023-02-22T23:44:17.242Z,4.20
2023-02-22T23:46:48.880Z,4.20
2023-02-22T23:49:20.278Z,4.20
2023-02-22T23:51:49.331Z,4.10
2023-02-22T23:54:20.278Z,4.20
2023-02-22T23:56:56.422Z,4.10
2023-02-22T23:59:26.019Z,4.10
